Time,TemperatureF,DewpointF,PressureIn,WindDirection,WindDirectionDegrees,WindSpeedMPH,WindSpeedGustMPH,Humidity,HourlyPrecipIn,Conditions,Clouds,dailyrainin,SoftwareType,DateUTC
2013-08-18 00:02:00,55.0,54.0,-100.00,South,185,1.0,2.0,95,-99.99,,,-99.99,,2013-08-18 05:02:00,
2013-08-18 00:43:00,54.0,54.0,-100.00,SSW,200,0.0,3.0,97,-99.99,,,-99.99,,2013-08-18 05:43:00,
2013-08-18 00:52:00,54.0,54.0,-100.00,SSW,200,0.0,3.0,97,-99.99,,,-99.99,,2013-08-18 05:52:00,
2013-08-18 01:01:00,54.0,54.0,-100.00,SSW,200,0.0,3.0,97,-99.99,,,-99.99,,2013-08-18 06:01:00,
2013-08-18 01:11:00,54.0,53.0,-100.00,SSW,205,1.0,2.0,98,-99.99,,,-99.99,,2013-08-18 06:11:00,
2013-08-18 01:42:00,54.0,53.0,-100.00,SSW,205,1.0,2.0,98,-99.99,,,-99.99,,2013-08-18 06:42:00,
2013-08-18 01:52:00,54.0,53.0,-100.00,SSW,205,1.0,2.0,98,-99.99,,,-99.99,,2013-08-18 06:52:00,
2013-08-18 02:01:00,54.0,53.0,-100.00,SSW,205,1.0,2.0,98,-99.99,,,-99.99,,2013-08-18 07:01:00,
2013-08-18 02:10:00,53.0,52.0,-100.00,South,175,2.0,4.0,98,-99.99,,,-99.99,,2013-08-18 07:10:00,
2013-08-18 02:42:00,53.0,52.0,-100.00,South,175,2.0,4.0,98,-99.99,,,-99.99,,2013-08-18 07:42:00,
2013-08-18 02:52:00,53.0,52.0,-100.00,South,175,2.0,4.0,98,-99.99,,,-99.99,,2013-08-18 07:52:00,
2013-08-18 03:01:00,53.0,52.0,-100.00,South,175,2.0,4.0,98,-99.99,,,-99.99,,2013-08-18 08:01:00,
2013-08-18 03:11:00,51.0,51.0,-100.00,South,180,1.0,1.0,99,-99.99,,,-99.99,,2013-08-18 08:11:00,
2013-08-18 03:42:00,51.0,51.0,-100.00,South,180,1.0,1.0,99,-99.99,,,-99.99,,2013-08-18 08:42:00,
2013-08-18 03:52:00,51.0,51.0,-100.00,South,180,1.0,1.0,99,-99.99,,,-99.99,,2013-08-18 08:52:00,
2013-08-18 04:01:00,51.0,51.0,-100.00,South,180,1.0,1.0,99,-99.99,,,-99.99,,2013-08-18 09:01:00,
2013-08-18 04:43:00,50.0,50.0,-100.00,South,190,1.0,2.0,99,-99.99,,,-99.99,,2013-08-18 09:43:00,
2013-08-18 04:53:00,50.0,50.0,-100.00,South,190,1.0,2.0,99,-99.99,,,-99.99,,2013-08-18 09:53:00,
2013-08-18 05:03:00,50.0,50.0,-100.00,South,190,1.0,2.0,99,-99.99,,,-99.99,,2013-08-18 10:03:00,
2013-08-18 05:10:00,49.0,49.0,-100.00,SSW,195,0.0,1.0,99,-99.99,,,-99.99,,2013-08-18 10:10:00,
2013-08-18 05:43:00,49.0,49.0,-100.00,SSW,195,0.0,1.0,99,-99.99,,,-99.99,,2013-08-18 10:43:00,
2013-08-18 05:52:00,49.0,49.0,-100.00,SSW,195,0.0,1.0,99,-99.99,,,-99.99,,2013-08-18 10:52:00,
2013-08-18 06:02:00,49.0,49.0,-100.00,SSW,195,0.0,1.0,99,-99.99,,,-99.99,,2013-08-18 11:02:00,
2013-08-18 06:10:00,48.0,48.0,-100.00,South,170,0.0,0.0,99,-99.99,,,-99.99,,2013-08-18 11:10:00,
2013-08-18 06:42:00,48.0,48.0,-100.00,South,170,0.0,0.0,99,-99.99,,,-99.99,,2013-08-18 11:42:00,
2013-08-18 06:52:00,48.0,48.0,-100.00,South,170,0.0,0.0,99,-99.99,,,-99.99,,2013-08-18 11:52:00,
2013-08-18 07:01:00,48.0,48.0,-100.00,South,170,0.0,0.0,99,-99.99,,,-99.99,,2013-08-18 12:01:00,
2013-08-18 07:11:00,50.0,50.0,-100.00,SW,225,0.0,1.0,99,-99.99,,,-99.99,,2013-08-18 12:11:00,
2013-08-18 07:42:00,50.0,50.0,-100.00,SW,225,0.0,1.0,99,-99.99,,,-99.99,,2013-08-18 12:42:00,
2013-08-18 07:52:00,50.0,50.0,-100.00,SW,225,0.0,1.0,99,-99.99,,,-99.99,,2013-08-18 12:52:00,
2013-08-18 08:01:00,50.0,50.0,-100.00,SW,225,0.0,1.0,99,-99.99,,,-99.99,,2013-08-18 13:01:00,
2013-08-18 08:10:00,59.0,59.0,-100.00,South,175,2.0,8.0,99,-99.99,,,-99.99,,2013-08-18 13:10:00,
2013-08-18 08:42:00,59.0,59.0,-100.00,South,175,2.0,8.0,99,-99.99,,,-99.99,,2013-08-18 13:42:00,
2013-08-18 08:52:00,59.0,59.0,-100.00,South,175,2.0,8.0,99,-99.99,,,-99.99,,2013-08-18 13:52:00,
2013-08-18 09:01:00,59.0,59.0,-100.00,South,175,2.0,8.0,99,-99.99,,,-99.99,,2013-08-18 14:01:00,
2013-08-18 09:10:00,67.0,54.0,-100.00,South,180,4.0,9.0,63,-99.99,,,-99.99,,2013-08-18 14:10:00,
2013-08-18 09:42:00,67.0,54.0,-100.00,South,180,4.0,9.0,63,-99.99,,,-99.99,,2013-08-18 14:42:00,
2013-08-18 09:53:00,67.0,54.0,-100.00,South,180,4.0,9.0,63,-99.99,,,-99.99,,2013-08-18 14:53:00,
2013-08-18 10:01:00,67.0,54.0,-100.00,South,180,4.0,9.0,63,-99.99,,,-99.99,,2013-08-18 15:01:00,
2013-08-18 10:10:00,73.0,54.0,-100.00,South,170,6.0,12.0,51,-99.99,,,-99.99,,2013-08-18 15:10:00,
2013-08-18 10:43:00,73.0,54.0,-100.00,South,170,6.0,12.0,51,-99.99,,,-99.99,,2013-08-18 15:43:00,
2013-08-18 10:54:00,73.0,54.0,-100.00,South,170,6.0,12.0,51,-99.99,,,-99.99,,2013-08-18 15:54:00,
2013-08-18 11:03:00,73.0,54.0,-100.00,South,170,6.0,12.0,51,-99.99,,,-99.99,,2013-08-18 16:03:00,
2013-08-18 11:42:00,76.0,52.0,-100.00,SSE,165,9.0,16.0,43,-99.99,,,-99.99,,2013-08-18 16:42:00,
2013-08-18 11:52:00,76.0,52.0,-100.00,SSE,165,9.0,16.0,43,-99.99,,,-99.99,,2013-08-18 16:52:00,
2013-08-18 12:02:00,76.0,52.0,-100.00,SSE,165,9.0,16.0,43,-99.99,,,-99.99,,2013-08-18 17:02:00,
2013-08-18 12:11:00,75.0,50.0,-100.00,SSW,200,6.0,12.0,41,-99.99,,,-99.99,,2013-08-18 17:11:00,
2013-08-18 12:43:00,75.0,50.0,-100.00,SSW,200,6.0,12.0,41,-99.99,,,-99.99,,2013-08-18 17:43:00,
2013-08-18 12:52:00,75.0,50.0,-100.00,SSW,200,6.0,12.0,41,-99.99,,,-99.99,,2013-08-18 17:52:00,
2013-08-18 13:02:00,75.0,50.0,-100.00,SSW,200,6.0,12.0,41,-99.99,,,-99.99,,2013-08-18 18:02:00,
2013-08-18 13:10:00,78.0,50.0,-100.00,South,170,8.0,19.0,38,-99.99,,,-99.99,,2013-08-18 18:10:00,
2013-08-18 13:42:00,78.0,50.0,-100.00,South,170,8.0,19.0,38,-99.99,,,-99.99,,2013-08-18 18:42:00,
2013-08-18 13:52:00,78.0,50.0,-100.00,South,170,8.0,19.0,38,-99.99,,,-99.99,,2013-08-18 18:52:00,
2013-08-18 14:01:00,78.0,50.0,-100.00,South,170,8.0,19.0,38,-99.99,,,-99.99,,2013-08-18 19:01:00,
2013-08-18 14:42:00,79.0,50.0,-100.00,South,170,9.0,19.0,37,-99.99,,,-99.99,,2013-08-18 19:42:00,
2013-08-18 14:52:00,79.0,50.0,-100.00,South,170,9.0,19.0,37,-99.99,,,-99.99,,2013-08-18 19:52:00,
2013-08-18 15:02:00,79.0,50.0,-100.00,South,170,9.0,19.0,37,-99.99,,,-99.99,,2013-08-18 20:02:00,
2013-08-18 15:11:00,79.0,51.0,-100.00,SSE,160,6.0,21.0,37,-99.99,,,-99.99,,2013-08-18 20:11:00,
2013-08-18 15:42:00,79.0,51.0,-100.00,SSE,160,6.0,21.0,37,-99.99,,,-99.99,,2013-08-18 20:42:00,
2013-08-18 15:52:00,79.0,51.0,-100.00,SSE,160,6.0,21.0,37,-99.99,,,-99.99,,2013-08-18 20:52:00,
2013-08-18 16:01:00,79.0,51.0,-100.00,SSE,160,6.0,21.0,37,-99.99,,,-99.99,,2013-08-18 21:01:00,
2013-08-18 16:10:00,80.0,50.0,-100.00,South,190,7.0,17.0,35,-99.99,,,-99.99,,2013-08-18 21:10:00,
2013-08-18 16:42:00,80.0,50.0,-100.00,South,190,7.0,17.0,35,-99.99,,,-99.99,,2013-08-18 21:42:00,
2013-08-18 16:53:00,80.0,50.0,-100.00,South,190,7.0,17.0,35,-99.99,,,-99.99,,2013-08-18 21:53:00,
2013-08-18 17:03:00,80.0,50.0,-100.00,South,190,7.0,17.0,35,-99.99,,,-99.99,,2013-08-18 22:03:00,
2013-08-18 17:11:00,80.0,48.0,-100.00,South,170,6.0,14.0,33,-99.99,,,-99.99,,2013-08-18 22:11:00,
2013-08-18 17:42:00,80.0,48.0,-100.00,South,170,6.0,14.0,33,-99.99,,,-99.99,,2013-08-18 22:42:00,
2013-08-18 17:52:00,80.0,48.0,-100.00,South,170,6.0,14.0,33,-99.99,,,-99.99,,2013-08-18 22:52:00,
2013-08-18 18:02:00,80.0,48.0,-100.00,South,170,6.0,14.0,33,-99.99,,,-99.99,,2013-08-18 23:02:00,
2013-08-18 18:42:00,78.0,49.0,-100.00,South,170,8.0,19.0,36,-99.99,,,-99.99,,2013-08-18 23:42:00,
2013-08-18 18:52:00,78.0,49.0,-100.00,South,170,8.0,19.0,36,-99.99,,,-99.99,,2013-08-18 23:52:00,
2013-08-18 19:02:00,78.0,49.0,-100.00,South,170,8.0,19.0,36,-99.99,,,-99.99,,2013-08-19 00:02:00,
2013-08-18 19:10:00,75.0,50.0,-100.00,South,180,6.0,11.0,42,-99.99,,,-99.99,,2013-08-19 00:10:00,
2013-08-18 19:42:00,75.0,50.0,-100.00,South,180,6.0,11.0,42,-99.99,,,-99.99,,2013-08-19 00:42:00,
2013-08-18 19:52:00,75.0,50.0,-100.00,South,180,6.0,11.0,42,-99.99,,,-99.99,,2013-08-19 00:52:00,
2013-08-18 20:02:00,75.0,50.0,-100.00,South,180,6.0,11.0,42,-99.99,,,-99.99,,2013-08-19 01:02:00,
2013-08-18 20:11:00,70.0,52.0,-100.00,South,180,4.0,7.0,54,-99.99,,,-99.99,,2013-08-19 01:11:00,
2013-08-18 20:42:00,70.0,52.0,-100.00,South,180,4.0,7.0,54,-99.99,,,-99.99,,2013-08-19 01:42:00,
2013-08-18 20:52:00,70.0,52.0,-100.00,South,180,4.0,7.0,54,-99.99,,,-99.99,,2013-08-19 01:52:00,
2013-08-18 21:06:00,70.0,52.0,-100.00,South,180,4.0,7.0,54,-99.99,,,-99.99,,2013-08-19 02:06:00,
2013-08-18 21:42:00,66.0,54.0,-100.00,SSW,195,2.0,5.0,65,-99.99,,,-99.99,,2013-08-19 02:42:00,
2013-08-18 21:52:00,66.0,54.0,-100.00,SSW,195,2.0,5.0,65,-99.99,,,-99.99,,2013-08-19 02:52:00,
2013-08-18 22:01:00,66.0,54.0,-100.00,SSW,195,2.0,5.0,65,-99.99,,,-99.99,,2013-08-19 03:01:00,
2013-08-18 22:10:00,64.0,56.0,-100.00,SSW,205,3.0,6.0,75,-99.99,,,-99.99,,2013-08-19 03:10:00,
2013-08-18 22:42:00,64.0,56.0,-100.00,SSW,205,3.0,6.0,75,-99.99,,,-99.99,,2013-08-19 03:42:00,
2013-08-18 22:53:00,64.0,56.0,-100.00,SSW,205,3.0,6.0,75,-99.99,,,-99.99,,2013-08-19 03:53:00,
2013-08-18 23:03:00,64.0,56.0,-100.00,SSW,205,3.0,6.0,75,-99.99,,,-99.99,,2013-08-19 04:03:00,
2013-08-18 23:11:00,59.0,56.0,-100.00,South,170,2.0,2.0,89,-99.99,,,-99.99,,2013-08-19 04:11:00,
2013-08-18 23:42:00,59.0,56.0,-100.00,South,170,2.0,2.0,89,-99.99,,,-99.99,,2013-08-19 04:42:00,
2013-08-18 23:53:00,59.0,56.0,-100.00,South,170,2.0,2.0,89,-99.99,,,-99.99,,2013-08-19 04:53:00,